createdAt,value
2018-06-13T00:00:35.990Z,50.81
2018-06-13T00:03:35.924Z,50.91
2018-06-13T00:04:35.897Z,50.60
2018-06-13T00:05:36.197Z,49.35
2018-06-13T00:06:35.875Z,49.45
2018-06-13T00:07:35.960Z,48.97
2018-06-13T00:08:35.898Z,48.97
2018-06-13T00:09:36.280Z,49.07
2018-06-13T00:10:35.879Z,48.68
2018-06-13T00:11:36.215Z,48.30
2018-06-13T00:12:36.192Z,49.16
2018-06-13T00:13:35.791Z,48.49
2018-06-13T00:14:35.819Z,48.39
2018-06-13T00:16:35.730Z,48.49
2018-06-13T00:17:35.724Z,48.49
2018-06-13T00:18:36.003Z,49.45
2018-06-13T00:19:35.694Z,50.41
2018-06-13T00:20:35.724Z,50.21
2018-06-13T00:21:35.649Z,50.70
2018-06-13T00:22:35.652Z,49.64
2018-06-13T00:23:35.740Z,50.12
2018-06-13T00:24:35.611Z,51.07
2018-06-13T00:25:35.996Z,51.65
2018-06-13T00:26:35.641Z,50.21
2018-06-13T00:27:35.576Z,50.50
2018-06-13T00:28:35.569Z,50.98
2018-06-13T00:29:35.552Z,50.79
2018-06-13T00:30:35.520Z,51.17
2018-06-13T00:31:35.608Z,51.07
2018-06-13T00:32:35.891Z,50.98
2018-06-13T00:33:35.478Z,51.65
2018-06-13T00:34:35.457Z,50.79
2018-06-13T00:35:35.468Z,51.65
2018-06-13T00:36:35.432Z,51.27
2018-06-13T00:37:35.478Z,52.22
2018-06-13T00:38:35.455Z,51.17
2018-06-13T00:39:35.689Z,50.70
2018-06-13T00:40:35.375Z,50.31
2018-06-13T00:41:35.390Z,51.65
2018-06-13T00:42:35.361Z,51.46
2018-06-13T00:43:35.320Z,51.56
2018-06-13T00:44:35.358Z,51.65
2018-06-13T00:45:35.479Z,51.84
2018-06-13T00:46:35.571Z,52.89
2018-06-13T00:47:35.269Z,52.32
2018-06-13T00:48:35.258Z,53.94
2018-06-13T00:49:35.231Z,54.23
2018-06-13T00:50:35.423Z,54.61
2018-06-13T00:51:35.210Z,56.43
2018-06-13T00:52:35.192Z,56.15
2018-06-13T00:53:35.470Z,55.76
2018-06-13T00:54:35.161Z,56.72
2018-06-13T00:55:35.141Z,56.15
2018-06-13T00:56:35.183Z,56.34
2018-06-13T00:57:35.134Z,56.43
2018-06-13T00:58:35.095Z,58.34
2018-06-13T00:59:35.082Z,57.29
2018-06-13T01:00:35.369Z,56.82
2018-06-13T01:01:35.545Z,57.29
2018-06-13T01:02:35.073Z,55.86
2018-06-13T01:03:35.201Z,55.10
2018-06-13T01:04:34.998Z,55.19
2018-06-13T01:05:34.983Z,55.29
2018-06-13T01:06:35.276Z,56.24
2018-06-13T01:07:34.955Z,56.05
2018-06-13T01:08:34.985Z,55.86
2018-06-13T01:09:34.916Z,56.34
2018-06-13T01:10:34.906Z,56.62
2018-06-13T01:11:34.892Z,56.43
2018-06-13T01:12:35.175Z,56.34
2018-06-13T01:13:34.855Z,56.72
2018-06-13T01:14:35.282Z,56.24
2018-06-13T01:15:34.852Z,56.15
2018-06-13T01:16:34.824Z,55.47
2018-06-13T01:18:35.098Z,56.43
2018-06-13T01:19:34.785Z,55.86
2018-06-13T01:20:34.814Z,56.05
2018-06-13T01:22:34.733Z,55.67
2018-06-13T01:23:34.713Z,55.16
2018-06-13T01:24:34.999Z,55.19
2018-06-13T01:25:34.697Z,54.80
2018-06-13T01:26:34.720Z,54.61
2018-06-13T01:27:34.653Z,55.47
2018-06-13T01:29:34.672Z,54.68
2018-06-13T01:30:34.602Z,55.00
2018-06-13T01:31:34.946Z,54.49
2018-06-13T01:32:34.654Z,54.61
2018-06-13T01:33:34.567Z,53.75
2018-06-13T01:34:34.556Z,54.80
2018-06-13T01:35:34.539Z,54.39
2018-06-13T01:36:34.643Z,54.23
2018-06-13T01:37:34.792Z,54.90
2018-06-13T01:38:34.611Z,53.82
2018-06-13T01:39:34.575Z,53.44
2018-06-13T01:40:34.529Z,53.44
2018-06-13T01:41:34.438Z,54.02
2018-06-13T01:42:34.425Z,53.34
2018-06-13T01:43:34.713Z,54.02
2018-06-13T01:44:34.456Z,52.67
2018-06-13T01:45:34.380Z,52.87
2018-06-13T01:46:34.366Z,52.29
2018-06-13T01:47:34.395Z,52.67
2018-06-13T01:48:34.329Z,51.91
2018-06-13T01:49:34.317Z,51.91
2018-06-13T01:50:34.681Z,50.86
2018-06-13T01:51:34.284Z,51.05
2018-06-13T01:52:34.289Z,50.95
2018-06-13T01:53:34.295Z,50.38
2018-06-13T01:54:34.240Z,48.57
2018-06-13T01:55:34.320Z,48.38
2018-06-13T01:56:34.637Z,47.03
2018-06-13T01:57:34.588Z,47.03
2018-06-13T01:58:34.653Z,45.60
2018-06-13T01:59:34.233Z,45.79
2018-06-13T02:00:34.157Z,45.79
2018-06-13T02:01:34.131Z,44.26
2018-06-13T02:02:34.343Z,43.12
2018-06-13T02:03:34.099Z,41.85
2018-06-13T02:04:34.379Z,40.52
2018-06-13T02:05:34.124Z,38.89
2018-06-13T02:06:34.270Z,37.46
2018-06-13T02:07:34.038Z,37.55
2018-06-13T02:08:34.070Z,36.41
2018-06-13T02:09:34.061Z,35.45
2018-06-13T02:10:34.065Z,34.30
2018-06-13T02:11:34.275Z,34.01
2018-06-13T02:12:33.957Z,33.44
2018-06-13T02:13:33.943Z,32.58
2018-06-13T02:14:33.975Z,31.43
2018-06-13T02:15:33.911Z,30.58
2018-06-13T02:16:33.944Z,29.91
2018-06-13T02:17:33.880Z,29.33
2018-06-13T02:18:34.158Z,29.14
2018-06-13T02:19:33.839Z,29.91
2018-06-13T02:20:33.880Z,29.43
2018-06-13T02:21:33.830Z,29.91
2018-06-13T02:22:33.904Z,29.33
2018-06-13T02:23:33.797Z,29.14
2018-06-13T02:24:33.871Z,28.57
2018-06-13T02:25:34.054Z,27.42
2018-06-13T02:26:33.955Z,26.75
2018-06-13T02:27:33.724Z,26.09
2018-06-13T02:28:33.705Z,23.98
2018-06-13T02:29:33.689Z,22.74
2018-06-13T02:30:33.687Z,22.17
2018-06-13T02:31:33.668Z,21.50
2018-06-13T02:32:34.007Z,21.21
2018-06-13T02:33:33.625Z,20.26
2018-06-13T02:34:33.610Z,19.30
2018-06-13T02:35:33.595Z,19.01
2018-06-13T02:36:33.571Z,19.01
2018-06-13T02:37:33.648Z,18.63
2018-06-13T02:38:33.970Z,18.15
2018-06-13T02:40:33.592Z,17.00
2018-06-13T02:41:33.502Z,17.39
2018-06-13T02:42:33.485Z,17.29
2018-06-13T02:43:33.471Z,16.24
2018-06-13T02:44:33.795Z,15.57
2018-06-13T02:45:33.482Z,14.72
2018-06-13T02:46:33.433Z,14.23
2018-06-13T02:47:33.510Z,13.46
2018-06-13T02:48:33.410Z,12.90
2018-06-13T02:49:33.379Z,11.94
2018-06-13T02:50:33.707Z,11.75
2018-06-13T02:52:33.375Z,11.37
2018-06-13T02:53:33.327Z,11.37
2018-06-13T02:54:33.305Z,11.37
2018-06-13T02:55:33.269Z,11.37
2018-06-13T02:56:33.608Z,11.08
2018-06-13T02:57:33.244Z,10.31
2018-06-13T02:58:33.226Z,9.83
2018-06-13T02:59:33.213Z,9.17
2018-06-13T03:00:34.168Z,8.78
2018-06-13T03:01:33.192Z,8.98
2018-06-13T03:02:33.627Z,9.17
2018-06-13T03:03:33.149Z,10.22
2018-06-13T03:04:33.139Z,9.84
2018-06-13T03:05:33.111Z,9.65
2018-06-13T03:06:33.102Z,9.65
2018-06-13T03:07:33.150Z,8.98
2018-06-13T03:08:33.432Z,8.98
2018-06-13T03:09:33.041Z,8.79
2018-06-13T03:10:33.112Z,8.79
2018-06-13T03:11:33.033Z,9.36
2018-06-13T03:12:33.105Z,8.97
2018-06-13T03:13:32.978Z,8.40
2018-06-13T03:14:33.021Z,9.27
2018-06-13T03:15:33.256Z,9.26
2018-06-13T03:16:32.935Z,9.45
2018-06-13T03:17:32.916Z,9.74
2018-06-13T03:18:32.945Z,10.79
2018-06-13T03:19:32.979Z,9.84
2018-06-13T03:20:32.934Z,9.08
2018-06-13T03:21:32.851Z,10.03
2018-06-13T03:22:33.147Z,9.17
2018-06-13T03:23:32.839Z,8.98
2018-06-13T03:24:32.823Z,9.94
2018-06-13T03:26:32.833Z,7.83
2018-06-13T03:27:32.767Z,6.59
2018-06-13T03:28:32.756Z,5.92
2018-06-13T03:29:33.024Z,4.39
2018-06-13T03:30:32.719Z,3.34
2018-06-13T03:31:32.794Z,5.83
2018-06-13T03:32:32.736Z,6.01
2018-06-13T03:33:32.664Z,5.25
2018-06-13T03:34:32.658Z,4.77
2018-06-13T03:35:32.637Z,4.58
2018-06-13T03:36:32.916Z,4.87
2018-06-13T03:37:32.600Z,5.63
2018-06-13T03:38:32.638Z,6.49
2018-06-13T03:39:32.580Z,5.83
2018-06-13T03:40:32.548Z,6.02
2018-06-13T03:41:32.588Z,7.83
2018-06-13T03:42:32.576Z,7.07
2018-06-13T03:43:32.818Z,7.35
2018-06-13T03:44:32.540Z,7.45
2018-06-13T03:45:32.529Z,7.26
2018-06-13T03:46:32.469Z,8.50
2018-06-13T03:47:32.443Z,10.31
2018-06-13T03:48:32.434Z,10.60
2018-06-13T03:49:32.417Z,10.51
2018-06-13T03:50:32.741Z,10.60
2018-06-13T03:51:32.379Z,10.51
2018-06-13T03:52:32.372Z,11.27
2018-06-13T03:53:32.394Z,11.75
2018-06-13T03:54:32.344Z,11.36
2018-06-13T03:55:32.313Z,9.84
2018-06-13T03:56:32.444Z,7.93
2018-06-13T03:57:32.585Z,6.88
2018-06-13T03:58:32.385Z,4.77
2018-06-13T04:00:32.241Z,0.00
2018-06-13T04:01:32.219Z,0.00
2018-06-13T04:02:32.254Z,0.00
2018-06-13T04:03:32.486Z,0.00
2018-06-13T04:04:32.169Z,0.00
2018-06-13T04:05:32.385Z,0.00
2018-06-13T04:06:32.136Z,0.00
2018-06-13T04:07:32.125Z,0.00
2018-06-13T04:08:32.154Z,0.00
2018-06-13T04:09:32.489Z,0.00
2018-06-13T04:10:32.088Z,0.00
2018-06-13T04:11:32.061Z,0.00
2018-06-13T04:12:32.047Z,0.00
2018-06-13T04:13:32.025Z,0.00
2018-06-13T04:14:32.058Z,0.00
2018-06-13T04:15:32.299Z,0.00
2018-06-13T04:16:31.983Z,0.00
2018-06-13T04:17:32.746Z,0.00
2018-06-13T04:18:32.090Z,0.00
2018-06-13T04:19:32.291Z,0.00
2018-06-13T04:20:31.980Z,0.00
2018-06-13T04:21:32.226Z,0.00
2018-06-13T04:22:31.947Z,0.00
2018-06-13T04:23:31.906Z,0.00
2018-06-13T04:24:31.872Z,0.00
2018-06-13T04:25:31.844Z,0.00
2018-06-13T04:26:31.872Z,0.00
2018-06-13T04:27:32.102Z,0.00
2018-06-13T04:28:31.799Z,0.00
2018-06-13T04:29:31.773Z,0.00
2018-06-13T04:30:31.755Z,0.00
2018-06-13T04:31:32.091Z,0.00
2018-06-13T04:32:31.904Z,0.00
2018-06-13T04:33:32.005Z,0.00
2018-06-13T04:34:31.733Z,0.00
2018-06-13T04:35:31.680Z,0.00
2018-06-13T04:36:31.652Z,0.00
2018-06-13T04:37:31.640Z,0.00
2018-06-13T04:38:31.671Z,0.00
2018-06-13T04:39:31.912Z,0.00
2018-06-13T04:40:31.597Z,0.00
2018-06-13T04:41:31.571Z,0.00
2018-06-13T04:42:31.663Z,0.00
2018-06-13T04:43:31.604Z,0.00
2018-06-13T04:44:31.579Z,0.00
2018-06-13T04:45:31.525Z,0.00
2018-06-13T04:46:31.589Z,0.00
2018-06-13T04:47:31.473Z,0.00
2018-06-13T04:48:31.460Z,0.00
2018-06-13T04:49:31.463Z,0.00
2018-06-13T04:51:31.776Z,0.00
2018-06-13T04:52:31.395Z,0.00
2018-06-13T04:53:31.566Z,0.00
2018-06-13T04:54:31.360Z,0.00
2018-06-13T04:55:32.492Z,0.00
2018-06-13T04:56:31.714Z,0.00
2018-06-13T04:57:31.383Z,0.00
2018-06-13T04:58:31.623Z,0.00
2018-06-13T04:59:31.313Z,0.00
2018-06-13T05:00:31.265Z,0.00
2018-06-13T05:01:31.655Z,0.00
2018-06-13T05:02:31.238Z,0.00
2018-06-13T05:03:31.283Z,0.00
2018-06-13T05:04:31.211Z,0.00
2018-06-13T05:05:31.535Z,0.00
2018-06-13T05:06:31.172Z,0.00
2018-06-13T05:07:31.159Z,0.00
2018-06-13T05:08:31.142Z,0.00
2018-06-13T05:09:31.170Z,0.00
2018-06-13T05:10:31.099Z,0.00
2018-06-13T05:11:31.189Z,0.00
2018-06-13T05:12:31.375Z,0.00
2018-06-13T05:14:31.423Z,0.00
2018-06-13T05:16:31.447Z,0.00
2018-06-13T05:17:30.991Z,0.00
2018-06-13T05:18:30.980Z,0.00
2018-06-13T05:19:31.353Z,0.00
2018-06-13T05:20:30.943Z,0.00
2018-06-13T05:21:30.976Z,0.00
2018-06-13T05:22:30.970Z,0.00
2018-06-13T05:23:31.146Z,0.00
2018-06-13T05:24:31.071Z,0.00
2018-06-13T05:25:31.721Z,0.00
2018-06-13T05:26:31.160Z,0.00
2018-06-13T05:27:30.920Z,0.00
2018-06-13T05:28:30.884Z,0.00
2018-06-13T05:29:30.916Z,0.00
2018-06-13T05:30:30.784Z,0.00
2018-06-13T05:31:30.839Z,0.00
2018-06-13T05:32:31.077Z,0.00
2018-06-13T05:34:30.897Z,0.00
2018-06-13T05:35:31.001Z,0.00
2018-06-13T05:36:30.697Z,0.00
2018-06-13T05:37:30.678Z,0.00
2018-06-13T05:38:31.044Z,0.00
2018-06-13T05:39:30.641Z,0.00
2018-06-13T05:40:30.678Z,0.00
2018-06-13T05:41:30.611Z,0.00
2018-06-13T05:42:30.598Z,0.00
2018-06-13T05:43:30.577Z,0.00
2018-06-13T05:44:30.886Z,0.00
2018-06-13T05:45:30.562Z,0.00
2018-06-13T05:46:30.592Z,0.00
2018-06-13T05:48:30.516Z,0.00
2018-06-13T05:49:30.485Z,0.00
2018-06-13T05:50:30.814Z,0.00
2018-06-13T05:51:30.696Z,0.00
2018-06-13T05:52:30.519Z,0.00
2018-06-13T05:53:30.430Z,0.00
2018-06-13T05:54:30.406Z,0.00
2018-06-13T05:55:30.404Z,0.00
2018-06-13T05:56:30.681Z,0.00
2018-06-13T05:57:30.358Z,0.00
2018-06-13T05:58:30.460Z,0.00
2018-06-13T05:59:30.505Z,0.00
2018-06-13T06:00:30.312Z,0.00
2018-06-13T06:01:30.320Z,0.00
2018-06-13T06:02:30.277Z,0.00
2018-06-13T06:03:30.565Z,0.00
2018-06-13T06:04:30.303Z,0.00
2018-06-13T06:05:30.236Z,0.00
2018-06-13T06:06:30.219Z,0.00
2018-06-13T06:07:30.204Z,0.00
2018-06-13T06:08:30.181Z,0.00
2018-06-13T06:09:30.473Z,0.00
2018-06-13T06:10:30.320Z,0.00
2018-06-13T06:11:30.241Z,0.00
2018-06-13T06:12:30.122Z,0.00
2018-06-13T06:13:30.105Z,0.00
2018-06-13T06:14:30.094Z,0.00
2018-06-13T06:15:30.098Z,0.00
2018-06-13T06:16:30.512Z,0.00
2018-06-13T06:17:30.042Z,0.00
2018-06-13T06:18:30.029Z,0.00
2018-06-13T06:19:30.012Z,0.00
2018-06-13T06:20:30.088Z,0.00
2018-06-13T06:21:30.184Z,0.00
2018-06-13T06:22:30.017Z,0.00
2018-06-13T06:23:30.436Z,0.00
2018-06-13T06:24:29.942Z,0.00
2018-06-13T06:25:29.926Z,0.00
2018-06-13T06:26:29.921Z,0.00
2018-06-13T06:27:29.906Z,0.00
2018-06-13T06:28:29.934Z,0.00
2018-06-13T06:29:30.004Z,0.00
2018-06-13T06:30:30.144Z,0.00
2018-06-13T06:31:29.829Z,0.00
2018-06-13T06:32:30.042Z,0.00
2018-06-13T06:33:29.794Z,0.00
2018-06-13T06:34:29.829Z,0.00
2018-06-13T06:35:29.768Z,0.00
2018-06-13T06:36:29.748Z,0.00
2018-06-13T06:37:30.054Z,0.00
2018-06-13T06:38:29.717Z,0.00
2018-06-13T06:39:29.711Z,0.00
2018-06-13T06:41:29.688Z,0.00
2018-06-13T06:42:29.673Z,0.00
2018-06-13T06:43:29.656Z,0.00
2018-06-13T06:44:29.935Z,3.44
2018-06-13T06:45:29.866Z,0.00
2018-06-13T06:46:29.649Z,0.00
2018-06-13T06:47:29.580Z,2.58
2018-06-13T06:48:29.593Z,3.53
2018-06-13T06:49:29.566Z,5.93
2018-06-13T06:50:29.547Z,2.29
2018-06-13T06:51:29.822Z,5.35
2018-06-13T06:52:29.585Z,12.43
2018-06-13T06:53:29.499Z,15.87
2018-06-13T06:54:29.481Z,17.40
2018-06-13T06:55:29.513Z,20.84
2018-06-13T06:56:29.460Z,18.45
2018-06-13T06:57:29.431Z,15.39
2018-06-13T06:58:29.920Z,16.45
2018-06-13T06:59:29.408Z,21.70
2018-06-13T07:00:29.417Z,24.48
2018-06-13T07:01:29.376Z,20.95
2018-06-13T07:02:29.364Z,17.12
2018-06-13T07:03:29.432Z,27.07
2018-06-13T07:04:29.389Z,26.50
2018-06-13T07:05:30.024Z,26.78
2018-06-13T07:06:29.346Z,29.08
2018-06-13T07:07:29.353Z,25.73
2018-06-13T07:08:29.271Z,31.48
2018-06-13T07:09:29.257Z,35.49
2018-06-13T07:10:29.305Z,34.83
2018-06-13T07:11:29.533Z,33.40
2018-06-13T07:12:29.215Z,37.70
2018-06-13T07:13:29.199Z,37.32
2018-06-13T07:14:29.192Z,40.77
2018-06-13T07:15:29.173Z,45.43
2018-06-13T07:16:29.208Z,46.70
2018-06-13T07:17:29.451Z,41.61
2018-06-13T07:18:31.277Z,44.21
2018-06-13T07:19:29.135Z,45.55
2018-06-13T07:20:29.102Z,50.52
2018-06-13T07:21:29.085Z,47.08
2018-06-13T07:22:29.128Z,48.71
2018-06-13T07:23:29.067Z,49.95
2018-06-13T07:24:31.298Z,54.45
2018-06-13T07:27:29.001Z,56.27
2018-06-13T07:28:29.057Z,53.02
2018-06-13T07:29:28.975Z,50.74
2018-06-13T07:30:29.263Z,60.03
2018-06-13T07:31:28.959Z,58.79
2018-06-13T07:32:28.960Z,63.67
2018-06-13T07:33:28.921Z,65.01
2018-06-13T07:34:28.974Z,56.87
2018-06-13T07:35:28.913Z,65.20
2018-06-13T07:36:29.178Z,65.78
2018-06-13T07:37:28.868Z,65.01
2018-06-13T07:38:28.857Z,67.41
2018-06-13T07:39:28.843Z,65.05
2018-06-13T07:40:28.878Z,67.05
2018-06-13T07:41:28.839Z,69.07
2018-06-13T07:42:28.800Z,70.28
2018-06-13T07:43:29.094Z,70.18
2018-06-13T07:44:28.777Z,70.09
2018-06-13T07:45:28.765Z,66.45
2018-06-13T07:46:28.819Z,75.29
2018-06-13T07:47:28.741Z,76.92
2018-06-13T07:48:28.731Z,75.10
2018-06-13T07:49:28.719Z,77.65
2018-06-13T07:50:28.998Z,72.99
2018-06-13T07:51:28.687Z,75.77
2018-06-13T07:52:28.723Z,73.66
2018-06-13T07:53:28.687Z,76.06
2018-06-13T07:54:28.647Z,76.15
2018-06-13T07:55:28.640Z,76.15
2018-06-13T07:56:28.624Z,76.44
2018-06-13T07:57:29.118Z,73.47
2018-06-13T07:58:31.068Z,75.01
2018-06-13T07:59:28.606Z,74.72
2018-06-13T08:00:28.894Z,76.86
2018-06-13T08:01:28.563Z,80.27
2018-06-13T08:02:28.550Z,76.44
2018-06-13T08:03:28.852Z,80.18
2018-06-13T08:05:28.559Z,80.76
2018-06-13T08:06:28.498Z,79.74
2018-06-13T08:07:28.494Z,77.69
2018-06-13T08:08:28.621Z,81.37
2018-06-13T08:10:28.753Z,81.81
2018-06-13T08:11:28.496Z,80.66
2018-06-13T08:12:28.431Z,79.74
2018-06-13T08:14:28.414Z,84.00
2018-06-13T08:15:28.406Z,85.63
2018-06-13T08:16:28.433Z,82.81
2018-06-13T08:17:28.821Z,83.33
2018-06-13T08:18:28.363Z,84.28
2018-06-13T08:19:28.423Z,84.38
2018-06-13T08:20:28.328Z,84.86
2018-06-13T08:21:28.318Z,87.35
2018-06-13T08:22:28.323Z,87.07
2018-06-13T08:23:28.359Z,91.28
2018-06-13T08:25:28.635Z,81.84
2018-06-13T08:26:28.258Z,99.01
2018-06-13T08:27:28.463Z,99.68
2018-06-13T08:28:28.277Z,95.51
2018-06-13T08:29:28.306Z,98.82
2018-06-13T08:30:28.681Z,95.55
2018-06-13T08:31:29.435Z,97.28
2018-06-13T08:32:28.627Z,95.65
2018-06-13T08:33:28.550Z,99.68
2018-06-13T08:34:28.173Z,97.19
2018-06-13T08:35:28.213Z,97.09
2018-06-13T08:36:28.149Z,97.56
2018-06-13T08:37:28.155Z,91.33
2018-06-13T08:38:28.433Z,98.24
2018-06-13T08:40:28.104Z,98.91
2018-06-13T08:41:28.145Z,97.66
2018-06-13T08:42:28.084Z,97.47
2018-06-13T08:43:28.123Z,99.99
2018-06-13T08:44:28.363Z,97.14
2018-06-13T08:46:28.057Z,92.97
2018-06-13T08:47:28.350Z,89.08
2018-06-13T08:48:28.548Z,93.97
2018-06-13T08:49:28.941Z,92.10
2018-06-13T08:50:28.868Z,96.51
2018-06-13T08:51:28.429Z,92.10
2018-06-13T08:52:28.435Z,93.63
2018-06-13T08:53:27.958Z,91.91
2018-06-13T08:54:27.938Z,93.63
2018-06-13T08:55:27.938Z,93.63
2018-06-13T08:56:28.234Z,93.83
2018-06-13T08:57:27.910Z,90.19
2018-06-13T08:58:27.955Z,93.26
2018-06-13T08:59:27.885Z,91.14
2018-06-13T09:00:27.881Z,89.04
2018-06-13T09:01:27.866Z,88.27
2018-06-13T09:02:27.889Z,87.88
2018-06-13T09:03:27.834Z,88.46
2018-06-13T09:04:27.877Z,87.31
2018-06-13T09:06:27.809Z,88.75
2018-06-13T09:07:27.828Z,89.51
2018-06-13T09:08:28.073Z,89.71
2018-06-13T09:09:27.775Z,88.94
2018-06-13T09:10:27.810Z,89.13
2018-06-13T09:11:27.740Z,87.98
2018-06-13T09:12:27.736Z,87.21
2018-06-13T09:13:27.715Z,87.12
2018-06-13T09:14:28.012Z,88.75
2018-06-13T09:15:27.690Z,87.79
2018-06-13T09:18:27.658Z,84.58
2018-06-13T09:19:27.694Z,84.88
2018-06-13T09:20:27.625Z,82.71
2018-06-13T09:21:27.910Z,85.49
2018-06-13T09:22:27.624Z,83.48
2018-06-13T09:24:27.639Z,82.32
2018-06-13T09:25:27.564Z,81.85
2018-06-13T09:26:27.611Z,87.88
2018-06-13T09:27:27.838Z,88.75
2018-06-13T09:28:27.525Z,89.13
2018-06-13T09:29:27.537Z,90.09
2018-06-13T09:30:27.554Z,92.30
2018-06-13T09:31:27.485Z,89.42
2018-06-13T09:32:27.489Z,89.75
2018-06-13T09:33:27.557Z,90.33
2018-06-13T09:34:27.755Z,88.70
2018-06-13T09:35:27.523Z,88.12
2018-06-13T09:36:27.525Z,88.31
2018-06-13T09:38:27.496Z,90.33
2018-06-13T09:39:27.658Z,91.57
2018-06-13T09:40:27.373Z,89.75
2018-06-13T09:41:27.658Z,87.26
2018-06-13T09:42:27.395Z,89.08
2018-06-13T09:43:27.348Z,88.70
2018-06-13T09:44:27.324Z,93.11
2018-06-13T09:45:27.316Z,90.23
2018-06-13T09:46:27.359Z,91.19
2018-06-13T09:47:27.290Z,90.61
2018-06-13T09:48:27.622Z,92.68
2018-06-13T09:49:27.263Z,91.38
2018-06-13T09:50:27.731Z,90.85
2018-06-13T09:51:27.242Z,92.48
2018-06-13T09:52:27.278Z,94.88
2018-06-13T09:53:27.214Z,95.65
2018-06-13T09:54:27.302Z,95.94
2018-06-13T09:55:27.506Z,96.99
2018-06-13T09:56:27.190Z,96.03
2018-06-13T09:57:27.167Z,94.21
2018-06-13T09:58:27.159Z,92.19
2018-06-13T09:59:27.143Z,95.94
2018-06-13T10:00:27.182Z,96.03
2018-06-13T10:01:27.472Z,93.54
2018-06-13T10:02:27.114Z,94.79
2018-06-13T10:03:27.106Z,94.07
2018-06-13T10:04:27.093Z,92.63
2018-06-13T10:06:27.122Z,90.42
2018-06-13T10:07:27.356Z,89.56
2018-06-13T10:08:27.052Z,89.27
2018-06-13T10:09:27.029Z,89.75
2018-06-13T10:10:27.015Z,90.33
2018-06-13T10:11:27.016Z,94.49
2018-06-13T10:12:27.059Z,95.17
2018-06-13T10:13:27.280Z,95.07
2018-06-13T10:14:26.971Z,94.79
2018-06-13T10:15:26.966Z,96.32
2018-06-13T10:16:27.026Z,93.73
2018-06-13T10:17:26.952Z,94.40
2018-06-13T10:18:26.987Z,93.30
2018-06-13T10:20:27.203Z,94.59
2018-06-13T10:22:26.880Z,95.89
2018-06-13T10:23:27.025Z,97.42
2018-06-13T10:24:26.934Z,95.41
2018-06-13T10:25:27.017Z,98.10
2018-06-13T10:26:27.135Z,99.99
2018-06-13T10:27:26.885Z,99.99
2018-06-13T10:28:27.045Z,99.99
2018-06-13T10:29:26.801Z,99.99
2018-06-13T10:30:26.843Z,99.99
2018-06-13T10:31:26.775Z,99.99
2018-06-13T10:32:27.063Z,99.99
2018-06-13T10:33:26.755Z,99.99
2018-06-13T10:34:26.743Z,99.99
2018-06-13T10:35:27.035Z,99.99
2018-06-13T10:36:26.778Z,99.99
2018-06-13T10:37:26.809Z,99.99
2018-06-13T10:38:26.699Z,99.99
2018-06-13T10:39:26.990Z,99.99
2018-06-13T10:40:26.700Z,99.99
2018-06-13T10:41:26.681Z,99.99
2018-06-13T10:42:26.717Z,99.99
2018-06-13T10:43:26.650Z,99.99
2018-06-13T10:44:26.739Z,99.99
2018-06-13T10:45:27.155Z,99.99
2018-06-13T10:46:26.696Z,99.99
2018-06-13T10:48:26.657Z,99.99
2018-06-13T10:49:26.605Z,99.99
2018-06-13T10:50:26.600Z,99.99
2018-06-13T10:51:26.875Z,99.99
2018-06-13T10:52:26.560Z,99.99
2018-06-13T10:53:26.554Z,99.99
2018-06-13T10:54:26.592Z,99.99
2018-06-13T10:55:26.545Z,99.99
2018-06-13T10:56:26.518Z,99.99
2018-06-13T10:57:26.505Z,99.99
2018-06-13T10:58:26.496Z,99.99
2018-06-13T10:59:26.498Z,99.99
2018-06-13T11:00:26.529Z,99.99
2018-06-13T11:01:26.490Z,99.99
2018-06-13T11:02:26.455Z,99.99
2018-06-13T11:03:26.748Z,99.99
2018-06-13T11:04:26.445Z,99.99
2018-06-13T11:05:26.434Z,99.99
2018-06-13T11:06:26.468Z,99.99
2018-06-13T11:07:26.404Z,99.99
2018-06-13T11:08:26.394Z,99.99
2018-06-13T11:09:26.708Z,99.99
2018-06-13T11:10:26.376Z,99.99
2018-06-13T11:11:26.394Z,99.99
2018-06-13T11:12:26.399Z,99.99
2018-06-13T11:13:26.367Z,99.99
2018-06-13T11:14:26.336Z,99.99
2018-06-13T11:15:26.320Z,99.99
2018-06-13T11:16:26.609Z,99.99
2018-06-13T11:17:26.295Z,99.99
2018-06-13T11:19:26.397Z,99.99
2018-06-13T11:20:26.286Z,99.99
2018-06-13T11:21:26.255Z,99.99
2018-06-13T11:23:26.533Z,99.99
2018-06-13T11:24:26.229Z,99.99
2018-06-13T11:25:26.263Z,99.99
2018-06-13T11:26:26.202Z,99.99
2018-06-13T11:27:26.245Z,99.99
2018-06-13T11:28:26.207Z,99.99
2018-06-13T11:29:26.486Z,99.99
2018-06-13T11:30:26.234Z,99.99
2018-06-13T11:31:26.251Z,99.99
2018-06-13T11:33:26.138Z,99.99
2018-06-13T11:34:26.132Z,99.99
2018-06-13T11:35:26.415Z,99.99
2018-06-13T11:36:26.101Z,99.99
2018-06-13T11:37:26.138Z,99.99
2018-06-13T11:38:26.075Z,99.99
2018-06-13T11:39:26.069Z,99.99
2018-06-13T11:40:26.053Z,99.99
2018-06-13T11:41:26.380Z,99.99
2018-06-13T11:42:26.040Z,99.99
2018-06-13T11:43:26.074Z,99.99
2018-06-13T11:44:26.020Z,99.99
2018-06-13T11:45:26.264Z,99.99
2018-06-13T11:46:26.104Z,99.99
2018-06-13T11:47:26.283Z,99.99
2018-06-13T11:48:25.968Z,99.99
2018-06-13T11:49:26.011Z,99.99
2018-06-13T11:50:25.953Z,99.99
2018-06-13T11:51:25.944Z,99.99
2018-06-13T11:52:25.936Z,99.99
2018-06-13T11:53:26.216Z,99.99
2018-06-13T11:54:25.918Z,99.99
2018-06-13T11:55:25.945Z,99.99
2018-06-13T11:56:25.882Z,99.99
2018-06-13T11:57:28.878Z,99.99
2018-06-13T11:58:25.871Z,99.99
2018-06-13T11:59:25.857Z,99.99
2018-06-13T12:00:26.221Z,99.99
2018-06-13T12:01:25.959Z,99.99
2018-06-13T12:02:25.820Z,99.99
2018-06-13T12:03:25.823Z,99.99
2018-06-13T12:04:25.881Z,99.99
2018-06-13T12:05:25.867Z,99.99
2018-06-13T12:06:26.089Z,99.99
2018-06-13T12:07:25.820Z,99.99
2018-06-13T12:08:25.771Z,99.99
2018-06-13T12:09:25.750Z,99.99
2018-06-13T12:10:25.749Z,99.99
2018-06-13T12:11:25.731Z,99.99
2018-06-13T12:12:26.043Z,99.99
2018-06-13T12:13:25.767Z,99.99
2018-06-13T12:14:25.708Z,99.99
2018-06-13T12:15:25.701Z,99.99
2018-06-13T12:16:25.711Z,96.37
2018-06-13T12:17:25.693Z,96.85
2018-06-13T12:19:26.007Z,98.63
2018-06-13T12:20:25.655Z,92.76
2018-06-13T12:21:25.639Z,92.66
2018-06-13T12:23:25.619Z,93.72
2018-06-13T12:24:25.631Z,96.70
2018-06-13T12:25:25.656Z,97.62
2018-06-13T12:26:25.895Z,97.91
2018-06-13T12:27:25.589Z,99.99
2018-06-13T12:28:25.588Z,99.99
2018-06-13T12:29:25.568Z,99.30
2018-06-13T12:30:25.556Z,99.49
2018-06-13T12:31:25.633Z,99.99
2018-06-13T12:36:25.516Z,92.61
2018-06-13T12:37:25.564Z,86.51
2018-06-13T12:39:26.186Z,89.39
2018-06-13T12:40:25.554Z,88.53
2018-06-13T12:41:25.541Z,90.93
2018-06-13T12:42:25.475Z,93.77
2018-06-13T12:43:25.511Z,99.99
2018-06-13T12:44:25.439Z,99.99
2018-06-13T12:45:25.471Z,99.99
2018-06-13T12:46:25.733Z,99.99
2018-06-13T12:47:25.415Z,99.99
2018-06-13T12:48:25.478Z,99.99
2018-06-13T12:49:25.445Z,99.99
2018-06-13T12:50:25.458Z,99.99
2018-06-13T12:51:25.380Z,99.99
2018-06-13T12:52:25.667Z,99.99
2018-06-13T12:53:25.376Z,99.99
2018-06-13T12:54:25.355Z,99.99
2018-06-13T12:55:25.387Z,99.99
2018-06-13T12:56:25.327Z,99.99
2018-06-13T12:57:25.324Z,99.99
2018-06-13T12:58:25.621Z,99.99
2018-06-13T12:59:25.305Z,99.99
2018-06-13T13:00:25.292Z,99.99
2018-06-13T13:02:25.319Z,99.99
2018-06-13T13:03:25.258Z,99.99
2018-06-13T13:04:25.249Z,99.99
2018-06-13T13:05:25.244Z,99.99
2018-06-13T13:06:25.312Z,99.99
2018-06-13T13:07:25.307Z,99.99
2018-06-13T13:08:26.007Z,99.99
2018-06-13T13:09:25.501Z,99.99
2018-06-13T13:10:26.415Z,99.99
2018-06-13T13:11:25.483Z,99.99
2018-06-13T13:12:25.168Z,99.99
2018-06-13T13:13:25.219Z,99.99
2018-06-13T13:14:25.200Z,99.99
2018-06-13T13:15:25.196Z,99.99
2018-06-13T13:16:25.123Z,99.99
2018-06-13T13:17:25.429Z,99.99
2018-06-13T13:18:25.107Z,99.99
2018-06-13T13:19:25.126Z,99.99
2018-06-13T13:20:25.211Z,99.99
2018-06-13T13:21:25.197Z,99.99
2018-06-13T13:22:25.065Z,99.99
2018-06-13T13:23:25.350Z,99.99
2018-06-13T13:24:25.041Z,99.99
2018-06-13T13:25:25.033Z,99.99
2018-06-13T13:26:25.069Z,99.99
2018-06-13T13:28:25.068Z,99.99
2018-06-13T13:30:25.305Z,99.99
2018-06-13T13:31:24.970Z,99.99
2018-06-13T13:32:25.013Z,99.99
2018-06-13T13:33:24.961Z,99.83
2018-06-13T13:34:24.936Z,98.63
2018-06-13T13:35:25.010Z,99.35
2018-06-13T13:36:25.277Z,99.99
2018-06-13T13:38:24.952Z,98.58
2018-06-13T13:39:24.887Z,99.99
2018-06-13T13:40:24.887Z,99.99
2018-06-13T13:41:24.870Z,99.99
2018-06-13T13:42:25.161Z,99.99
2018-06-13T13:43:24.855Z,96.08
2018-06-13T13:44:24.894Z,94.11
2018-06-13T13:45:24.846Z,99.99
2018-06-13T13:46:24.826Z,99.99